Time;durP1;ratioP1;P1;durP2;ratioP2;P2;SDS_P1;SDS_P2;PMS_P1;PMS_P2;Temp;Humidity;BMP_temperature;BMP_pressure;BME280_temperature;BME280_humidity;BME280_pressure;Samples;Min_cycle;Max_cycle;Signal;HPM_P1;HPM_P2
2021/12/29 00:00:15;;;;;;;61.30;42.73;;;;;;;;;;4996175;28;20054;-63
2021/12/29 00:02:41;;;;;;;64.73;43.60;;;;;;;;;;5011441;28;20038;-63
2021/12/29 00:05:08;;;;;;;66.90;44.37;;;;;;;;;;4994620;28;20036;-63
2021/12/29 00:07:34;;;;;;;66.37;45.33;;;;;;;;;;5011650;28;20430;-63
2021/12/29 00:10:01;;;;;;;61.30;42.53;;;;;;;;;;5013412;28;20021;-63
2021/12/29 00:12:27;;;;;;;70.03;44.27;;;;;;;;;;4995087;28;20029;-63
2021/12/29 00:14:54;;;;;;;69.33;45.93;;;;;;;;;;5012814;28;20026;-63
2021/12/29 00:17:20;;;;;;;66.10;42.80;;;;;;;;;;5011640;28;20025;-63
2021/12/29 00:19:47;;;;;;;65.23;44.77;;;;;;;;;;5019321;28;20029;-63
2021/12/29 00:22:13;;;;;;;66.07;44.07;;;;;;;;;;5013390;28;20495;-63
2021/12/29 00:24:39;;;;;;;62.00;42.37;;;;;;;;;;5013297;28;20365;-63
2021/12/29 00:27:06;;;;;;;65.93;44.53;;;;;;;;;;5012489;28;20045;-63
2021/12/29 00:29:32;;;;;;;59.83;42.17;;;;;;;;;;4996022;28;20108;-63
2021/12/29 00:31:58;;;;;;;60.97;40.87;;;;;;;;;;5013262;28;20076;-63
2021/12/29 00:34:24;;;;;;;64.30;42.10;;;;;;;;;;5013572;28;20100;-63
2021/12/29 00:36:51;;;;;;;60.80;42.30;;;;;;;;;;5012485;28;20029;-63
2021/12/29 00:39:17;;;;;;;59.30;41.73;;;;;;;;;;5013401;28;20142;-63
2021/12/29 00:41:43;;;;;;;58.83;41.47;;;;;;;;;;4994065;28;20373;-63
2021/12/29 00:44:09;;;;;;;61.97;41.70;;;;;;;;;;5011743;28;20041;-63
2021/12/29 00:46:38;;;;;;;64.07;41.10;;;;;;;;;;5013442;28;20053;-63
2021/12/29 00:49:04;;;;;;;66.00;44.87;;;;;;;;;;5002055;28;20041;-63
2021/12/29 00:51:30;;;;;;;62.87;42.73;;;;;;;;;;5013486;28;20037;-63
2021/12/29 00:53:57;;;;;;;65.87;43.87;;;;;;;;;;5012012;28;20380;-63
2021/12/29 00:56:23;;;;;;;58.03;41.23;;;;;;;;;;5013275;28;20048;-63
2021/12/29 00:58:49;;;;;;;64.63;42.57;;;;;;;;;;5012033;28;20387;-64
2021/12/29 01:01:15;;;;;;;62.03;41.67;;;;;;;;;;5013476;28;20439;-63
2021/12/29 01:03:43;;;;;;;65.33;42.40;;;;;;;;;;4994249;28;20423;-63
2021/12/29 01:06:09;;;;;;;67.37;44.93;;;;;;;;;;5013531;28;20104;-63
2021/12/29 01:08:36;;;;;;;60.73;41.17;;;;;;;;;;5012504;28;20467;-63
2021/12/29 01:11:02;;;;;;;65.03;42.87;;;;;;;;;;5013389;28;20030;-63
2021/12/29 01:13:34;;;;;;;63.90;43.63;;;;;;;;;;5010996;28;20033;-63
2021/12/29 01:18:34;;;;;;;61.87;41.40;;;;;;;;;;5016444;28;20130;-63
2021/12/29 01:21:00;;;;;;;64.17;42.33;;;;;;;;;;5013025;28;20033;-63
2021/12/29 01:23:26;;;;;;;75.57;44.57;;;;;;;;;;5013009;28;20037;-63
2021/12/29 01:25:52;;;;;;;60.97;41.60;;;;;;;;;;5012875;28;20045;-64
2021/12/29 01:28:18;;;;;;;63.30;41.87;;;;;;;;;;5013329;28;20029;-63
2021/12/29 01:30:44;;;;;;;68.57;44.37;;;;;;;;;;5009826;28;20038;-63
2021/12/29 01:33:10;;;;;;;66.73;43.63;;;;;;;;;;5022518;28;20037;-63
2021/12/29 01:38:58;;;;;;;62.93;42.87;;;;;;;;;;5001729;28;20396;-64
2021/12/29 01:41:24;;;;;;;64.70;40.78;;;;;;;;;;5003438;28;20034;-63
2021/12/29 01:43:50;;;;;;;64.10;43.70;;;;;;;;;;5012101;28;20021;-63
2021/12/29 01:46:16;;;;;;;65.63;42.80;;;;;;;;;;5000399;28;20054;-63
2021/12/29 01:48:42;;;;;;;59.70;39.60;;;;;;;;;;5010232;28;20022;-63
2021/12/29 01:51:09;;;;;;;57.13;38.77;;;;;;;;;;5011462;28;20069;-63
2021/12/29 01:53:36;;;;;;;60.37;40.03;;;;;;;;;;5010486;28;20037;-64
2021/12/29 01:56:02;;;;;;;66.57;41.87;;;;;;;;;;5007743;28;20168;-63
2021/12/29 01:58:28;;;;;;;61.53;41.20;;;;;;;;;;5012330;28;20105;-63
2021/12/29 02:00:57;;;;;;;60.50;38.53;;;;;;;;;;5011797;28;20037;-63
2021/12/29 02:03:23;;;;;;;64.60;40.47;;;;;;;;;;5012617;28;20018;-63
2021/12/29 02:05:49;;;;;;;60.77;39.83;;;;;;;;;;5018773;28;20041;-63
2021/12/29 02:08:22;;;;;;;61.30;40.33;;;;;;;;;;5011726;28;20037;-63
2021/12/29 02:10:49;;;;;;;56.07;39.80;;;;;;;;;;5013463;28;20034;-64
2021/12/29 02:13:15;;;;;;;58.67;38.87;;;;;;;;;;5013264;28;21032;-64
2021/12/29 02:15:41;;;;;;;60.97;40.17;;;;;;;;;;5015892;28;20026;-64
2021/12/29 02:18:15;;;;;;;59.27;39.70;;;;;;;;;;5020314;28;20133;-64
2021/12/29 02:20:44;;;;;;;58.78;38.83;;;;;;;;;;5016656;28;20026;-63
2021/12/29 02:23:16;;;;;;;59.07;38.87;;;;;;;;;;5015611;28;20384;-64
2021/12/29 02:25:49;;;;;;;58.07;39.23;;;;;;;;;;5015570;28;20438;-63
2021/12/29 02:28:19;;;;;;;62.17;40.03;;;;;;;;;;5008520;28;20042;-64
2021/12/29 02:30:46;;;;;;;60.93;38.53;;;;;;;;;;5016205;28;20034;-64
2021/12/29 02:33:13;;;;;;;64.43;39.03;;;;;;;;;;5015339;28;20065;-64
2021/12/29 02:35:40;;;;;;;62.43;38.90;;;;;;;;;;5015061;28;20041;-63
2021/12/29 02:38:10;;;;;;;62.03;39.17;;;;;;;;;;5013500;28;20098;-63
2021/12/29 02:40:36;;;;;;;60.23;39.50;;;;;;;;;;5001946;28;20101;-64
2021/12/29 02:43:02;;;;;;;60.70;39.80;;;;;;;;;;5014824;28;20088;-63
2021/12/29 02:45:33;;;;;;;56.43;38.53;;;;;;;;;;5014061;28;20483;-63
2021/12/29 02:47:59;;;;;;;61.13;39.57;;;;;;;;;;5013542;28;20506;-64
2021/12/29 02:50:25;;;;;;;53.70;37.77;;;;;;;;;;5014758;28;20065;-64
2021/12/29 02:52:51;;;;;;;57.30;37.17;;;;;;;;;;5015801;28;20032;-63
2021/12/29 02:55:17;;;;;;;50.20;35.10;;;;;;;;;;5013481;28;20029;-63
2021/12/29 02:57:43;;;;;;;49.90;34.50;;;;;;;;;;4996780;28;20037;-63
2021/12/29 03:00:13;;;;;;;50.80;36.07;;;;;;;;;;5014119;28;20034;-63
2021/12/29 03:02:40;;;;;;;55.17;36.77;;;;;;;;;;5014967;28;20030;-63
2021/12/29 03:05:06;;;;;;;54.10;37.00;;;;;;;;;;4995208;28;20045;-63
2021/12/29 03:07:32;;;;;;;52.53;35.73;;;;;;;;;;4996830;28;20034;-63
2021/12/29 03:10:04;;;;;;;51.67;36.37;;;;;;;;;;5014679;28;20041;-63
2021/12/29 03:12:30;;;;;;;48.03;33.57;;;;;;;;;;5013914;28;20032;-64
2021/12/29 03:14:58;;;;;;;51.73;35.80;;;;;;;;;;5013372;28;20069;-63
2021/12/29 03:17:24;;;;;;;45.73;33.67;;;;;;;;;;5025748;28;20387;-63
2021/12/29 03:19:50;;;;;;;49.53;34.03;;;;;;;;;;4999279;28;20069;-63
2021/12/29 03:22:16;;;;;;;42.97;30.67;;;;;;;;;;5014940;28;20084;-63
2021/12/29 03:24:42;;;;;;;40.97;31.17;;;;;;;;;;5011798;28;20042;-64
2021/12/29 03:27:08;;;;;;;39.87;30.03;;;;;;;;;;5014054;28;20121;-63
2021/12/29 03:29:34;;;;;;;40.67;30.30;;;;;;;;;;5022759;28;20057;-63
2021/12/29 03:32:06;;;;;;;42.20;30.27;;;;;;;;;;4996455;28;20065;-63
2021/12/29 03:34:32;;;;;;;40.30;30.17;;;;;;;;;;5013595;28;20057;-64
2021/12/29 03:36:58;;;;;;;39.40;29.60;;;;;;;;;;5014254;28;20033;-63
2021/12/29 03:39:26;;;;;;;40.70;29.87;;;;;;;;;;5016965;28;20033;-63
2021/12/29 03:41:52;;;;;;;36.03;27.33;;;;;;;;;;4996963;28;20480;-64
2021/12/29 03:44:18;;;;;;;41.10;30.40;;;;;;;;;;5013529;28;20384;-63
2021/12/29 03:46:44;;;;;;;40.37;29.87;;;;;;;;;;5014164;28;20121;-63
2021/12/29 03:49:10;;;;;;;40.43;29.87;;;;;;;;;;5017982;28;20076;-63
2021/12/29 03:51:36;;;;;;;41.23;29.83;;;;;;;;;;5014041;28;20033;-64
2021/12/29 03:54:04;;;;;;;44.10;31.50;;;;;;;;;;5014310;28;20018;-64
2021/12/29 03:56:31;;;;;;;43.30;30.57;;;;;;;;;;5013997;28;20041;-64
2021/12/29 03:58:57;;;;;;;42.00;30.53;;;;;;;;;;5013413;28;20029;-64
2021/12/29 04:01:25;;;;;;;40.30;31.10;;;;;;;;;;5013230;28;20041;-64
2021/12/29 04:03:51;;;;;;;41.90;30.43;;;;;;;;;;5013052;28;20160;-64
2021/12/29 04:06:19;;;;;;;40.70;30.43;;;;;;;;;;5033845;28;20041;-64
2021/12/29 04:08:45;;;;;;;36.37;28.27;;;;;;;;;;5008584;28;20098;-64
2021/12/29 04:11:12;;;;;;;41.23;30.27;;;;;;;;;;5008176;28;20483;-64
2021/12/29 04:13:38;;;;;;;37.93;28.43;;;;;;;;;;5008297;28;20479;-64
2021/12/29 04:16:05;;;;;;;35.63;27.20;;;;;;;;;;5016669;28;20040;-64
2021/12/29 04:18:31;;;;;;;37.70;28.33;;;;;;;;;;5010774;28;20128;-64
2021/12/29 04:21:00;;;;;;;33.33;26.87;;;;;;;;;;5012910;28;20388;-64
2021/12/29 04:23:30;;;;;;;35.30;27.60;;;;;;;;;;5003722;28;20032;-64
2021/12/29 04:25:57;;;;;;;34.43;26.13;;;;;;;;;;5020310;28;20545;-64
2021/12/29 04:28:25;;;;;;;33.70;26.63;;;;;;;;;;5010248;28;20095;-64
2021/12/29 04:30:53;;;;;;;33.80;26.97;;;;;;;;;;5013194;28;20058;-64
2021/12/29 04:33:19;;;;;;;36.87;27.70;;;;;;;;;;5012501;28;20061;-64
2021/12/29 04:35:46;;;;;;;37.33;28.87;;;;;;;;;;5013415;28;20056;-63
2021/12/29 04:38:13;;;;;;;36.93;28.60;;;;;;;;;;4992673;28;20435;-63
2021/12/29 04:40:39;;;;;;;36.03;28.40;;;;;;;;;;5009609;28;20034;-63
2021/12/29 04:43:05;;;;;;;38.03;29.97;;;;;;;;;;5001897;28;20028;-64
2021/12/29 04:45:31;;;;;;;37.63;28.10;;;;;;;;;;5009476;28;20061;-63
2021/12/29 04:47:59;;;;;;;36.97;28.60;;;;;;;;;;4994494;28;20022;-63
2021/12/29 04:50:29;;;;;;;38.07;29.37;;;;;;;;;;5014425;28;20104;-63
2021/12/29 04:52:57;;;;;;;35.63;27.93;;;;;;;;;;5014154;28;20022;-63
2021/12/29 04:55:23;;;;;;;35.30;26.97;;;;;;;;;;5000482;28;20046;-63
2021/12/29 04:57:49;;;;;;;42.83;27.80;;;;;;;;;;5008970;28;20083;-64
2021/12/29 05:00:16;;;;;;;35.83;27.97;;;;;;;;;;5015530;28;20497;-64
2021/12/29 05:02:42;;;;;;;37.40;26.93;;;;;;;;;;5022215;28;20033;-64
2021/12/29 05:05:20;;;;;;;35.73;27.47;;;;;;;;;;4976284;28;21958;-63
2021/12/29 05:10:31;;;;;;;34.15;26.33;;;;;;;;;;5008973;28;20083;-64
2021/12/29 05:12:57;;;;;;;37.53;27.47;;;;;;;;;;5010878;28;20022;-65
2021/12/29 05:15:23;;;;;;;35.37;26.53;;;;;;;;;;5010865;28;20092;-64
2021/12/29 05:17:49;;;;;;;32.37;25.43;;;;;;;;;;5012814;28;20030;-64
2021/12/29 05:20:15;;;;;;;32.27;26.10;;;;;;;;;;5012855;28;20052;-65
2021/12/29 05:22:41;;;;;;;30.17;24.07;;;;;;;;;;5012030;28;20026;-64
2021/12/29 05:25:08;;;;;;;29.90;23.60;;;;;;;;;;5010331;28;20033;-64
2021/12/29 05:27:34;;;;;;;30.43;23.87;;;;;;;;;;5012261;28;20104;-64
2021/12/29 05:30:03;;;;;;;30.43;23.97;;;;;;;;;;5011770;28;20106;-64
2021/12/29 05:32:30;;;;;;;32.17;24.40;;;;;;;;;;4994955;28;20021;-64
2021/12/29 05:34:56;;;;;;;30.10;24.00;;;;;;;;;;5011170;28;20105;-64
2021/12/29 05:37:23;;;;;;;27.83;23.50;;;;;;;;;;4994896;28;20037;-64
2021/12/29 05:39:49;;;;;;;30.50;23.43;;;;;;;;;;5019209;28;20447;-64
2021/12/29 05:42:15;;;;;;;28.33;22.97;;;;;;;;;;4995316;28;20104;-64
2021/12/29 05:44:41;;;;;;;33.07;25.40;;;;;;;;;;5009227;28;20061;-64
2021/12/29 05:47:07;;;;;;;30.60;22.83;;;;;;;;;;5011019;28;20046;-64
2021/12/29 05:49:33;;;;;;;31.30;23.57;;;;;;;;;;5010107;28;20105;-64
2021/12/29 05:51:59;;;;;;;31.90;25.03;;;;;;;;;;5016562;28;20061;-64
2021/12/29 05:54:27;;;;;;;30.33;25.27;;;;;;;;;;4997251;28;20030;-64
2021/12/29 05:56:54;;;;;;;29.80;23.47;;;;;;;;;;5016607;28;20026;-64
2021/12/29 06:02:25;;;;;;;32.17;23.47;;;;;;;;;;5012533;28;20395;-65
2021/12/29 06:04:51;;;;;;;33.40;24.73;;;;;;;;;;5012673;28;20034;-64
2021/12/29 06:07:17;;;;;;;30.87;22.93;;;;;;;;;;5033389;28;20108;-65
2021/12/29 06:09:43;;;;;;;31.10;23.37;;;;;;;;;;4996255;28;20390;-64
2021/12/29 06:12:09;;;;;;;32.80;24.50;;;;;;;;;;5016094;28;20112;-64
2021/12/29 06:14:35;;;;;;;35.47;25.20;;;;;;;;;;5011800;28;20404;-64
2021/12/29 06:17:01;;;;;;;33.07;24.23;;;;;;;;;;5012273;28;20033;-65
2021/12/29 06:19:28;;;;;;;31.07;23.37;;;;;;;;;;5014222;28;20029;-64
2021/12/29 06:21:54;;;;;;;33.07;24.63;;;;;;;;;;5014538;28;20052;-64
2021/12/29 06:24:20;;;;;;;35.70;25.90;;;;;;;;;;5013122;28;20763;-65
2021/12/29 06:26:46;;;;;;;34.70;25.80;;;;;;;;;;5028886;28;20491;-64
2021/12/29 06:29:12;;;;;;;32.10;25.03;;;;;;;;;;5016023;28;20079;-65
2021/12/29 06:31:38;;;;;;;29.83;23.43;;;;;;;;;;5016150;28;20037;-64
2021/12/29 06:34:04;;;;;;;31.83;24.17;;;;;;;;;;5007431;28;20519;-65
2021/12/29 06:36:30;;;;;;;31.67;22.77;;;;;;;;;;5013811;28;20034;-65
2021/12/29 06:38:56;;;;;;;29.43;23.10;;;;;;;;;;5010444;28;20140;-63
2021/12/29 06:41:22;;;;;;;28.47;22.17;;;;;;;;;;5010573;28;20029;-63
2021/12/29 06:43:48;;;;;;;26.90;21.50;;;;;;;;;;5015250;28;20026;-63
2021/12/29 06:46:14;;;;;;;27.43;20.73;;;;;;;;;;5021437;28;20454;-63
2021/12/29 06:48:41;;;;;;;29.43;21.43;;;;;;;;;;5015038;28;20475;-63
2021/12/29 06:51:07;;;;;;;30.17;22.23;;;;;;;;;;4994879;28;20416;-63
2021/12/29 06:53:33;;;;;;;26.63;21.73;;;;;;;;;;5014432;28;20029;-63
2021/12/29 06:56:00;;;;;;;28.60;21.93;;;;;;;;;;5023394;28;20037;-63
2021/12/29 06:58:26;;;;;;;26.73;21.20;;;;;;;;;;5013599;28;20033;-63
2021/12/29 07:00:52;;;;;;;28.47;20.30;;;;;;;;;;5014705;28;20061;-63
2021/12/29 07:03:19;;;;;;;29.87;23.10;;;;;;;;;;5014451;28;20037;-63
2021/12/29 07:05:45;;;;;;;32.97;22.97;;;;;;;;;;5002177;28;20041;-63
2021/12/29 07:08:11;;;;;;;29.93;22.13;;;;;;;;;;5016515;28;20030;-63
2021/12/29 07:10:40;;;;;;;38.37;24.40;;;;;;;;;;5014312;28;20029;-64
2021/12/29 07:13:06;;;;;;;35.70;23.63;;;;;;;;;;5000052;28;20041;-63
2021/12/29 07:15:33;;;;;;;36.53;24.57;;;;;;;;;;5007862;28;20033;-63
2021/12/29 07:17:59;;;;;;;38.23;24.83;;;;;;;;;;5014094;28;20109;-64
2021/12/29 07:20:25;;;;;;;40.47;24.17;;;;;;;;;;5011698;28;20467;-63
2021/12/29 07:22:51;;;;;;;37.83;24.77;;;;;;;;;;5016319;28;20109;-63
2021/12/29 07:25:17;;;;;;;38.20;25.10;;;;;;;;;;5022125;28;20121;-63
2021/12/29 07:27:42;;;;;;;38.10;24.23;;;;;;;;;;5013898;28;20388;-63
2021/12/29 07:30:09;;;;;;;38.43;24.70;;;;;;;;;;5013639;28;20021;-63
2021/12/29 07:32:35;;;;;;;39.50;25.60;;;;;;;;;;4996985;28;20040;-63
2021/12/29 07:35:01;;;;;;;37.03;24.30;;;;;;;;;;5024510;28;20113;-63
2021/12/29 07:37:27;;;;;;;41.37;25.03;;;;;;;;;;5011137;28;20402;-63
2021/12/29 07:39:53;;;;;;;40.53;25.60;;;;;;;;;;5013025;28;20036;-63
2021/12/29 07:42:19;;;;;;;36.63;22.93;;;;;;;;;;5002075;28;20030;-64
2021/12/29 07:44:47;;;;;;;34.00;23.10;;;;;;;;;;5017426;28;20124;-64
2021/12/29 07:47:48;;;;;;;31.10;22.13;;;;;;;;;;5013102;28;20499;-63
2021/12/29 07:50:16;;;;;;;31.87;22.13;;;;;;;;;;5012226;28;20475;-63
2021/12/29 07:52:47;;;;;;;30.23;19.83;;;;;;;;;;5012887;28;20034;-63
2021/12/29 07:55:14;;;;;;;33.10;20.80;;;;;;;;;;5013617;28;20025;-63
2021/12/29 07:57:40;;;;;;;28.80;19.70;;;;;;;;;;4995283;28;20057;-63
2021/12/29 08:00:06;;;;;;;27.77;20.13;;;;;;;;;;5010483;28;20526;-63
2021/12/29 08:02:32;;;;;;;28.90;21.07;;;;;;;;;;5011645;28;20030;-64
2021/12/29 08:04:58;;;;;;;26.20;19.63;;;;;;;;;;5012489;28;20399;-63
2021/12/29 08:07:25;;;;;;;29.27;20.23;;;;;;;;;;5012889;28;20057;-64
2021/12/29 08:09:52;;;;;;;21.33;17.23;;;;;;;;;;5015736;28;20021;-63
2021/12/29 08:12:18;;;;;;;22.83;18.53;;;;;;;;;;5004204;28;20502;-64
2021/12/29 08:14:45;;;;;;;22.97;18.47;;;;;;;;;;5011999;28;20384;-64
2021/12/29 08:17:12;;;;;;;25.77;19.57;;;;;;;;;;5013200;28;20368;-65
2021/12/29 08:19:38;;;;;;;24.70;16.83;;;;;;;;;;5014951;28;20025;-64
2021/12/29 08:22:04;;;;;;;26.70;18.80;;;;;;;;;;5012148;28;20033;-64
2021/12/29 08:24:31;;;;;;;23.30;18.27;;;;;;;;;;5016615;28;20112;-64
2021/12/29 08:26:57;;;;;;;21.77;17.97;;;;;;;;;;5021731;28;20033;-64
2021/12/29 08:29:23;;;;;;;22.50;18.07;;;;;;;;;;5013774;28;20030;-64
2021/12/29 08:31:49;;;;;;;24.67;17.77;;;;;;;;;;5012911;28;20365;-64
2021/12/29 08:34:15;;;;;;;21.37;17.00;;;;;;;;;;5014657;28;20026;-64
2021/12/29 08:36:41;;;;;;;22.50;18.03;;;;;;;;;;5012899;28;20036;-63
2021/12/29 08:39:07;;;;;;;22.47;17.90;;;;;;;;;;5012401;28;20029;-63
2021/12/29 08:41:33;;;;;;;23.20;17.83;;;;;;;;;;5006273;28;20117;-63
2021/12/29 08:44:00;;;;;;;23.53;18.73;;;;;;;;;;5013229;28;20018;-63
2021/12/29 08:46:26;;;;;;;23.73;18.30;;;;;;;;;;5013363;28;20419;-63
2021/12/29 08:48:52;;;;;;;26.67;18.73;;;;;;;;;;5011795;28;20034;-63
2021/12/29 08:51:19;;;;;;;23.97;18.63;;;;;;;;;;5011069;28;20029;-63
2021/12/29 08:53:45;;;;;;;24.57;19.30;;;;;;;;;;5005840;28;20111;-64
2021/12/29 08:56:14;;;;;;;24.90;19.20;;;;;;;;;;5012092;28;20030;-64
2021/12/29 08:58:40;;;;;;;24.70;18.37;;;;;;;;;;5013392;28;20030;-63
2021/12/29 09:01:06;;;;;;;22.87;18.70;;;;;;;;;;4996278;28;20030;-64
2021/12/29 09:03:32;;;;;;;27.33;19.17;;;;;;;;;;5010768;28;20042;-63
2021/12/29 09:05:58;;;;;;;23.60;18.40;;;;;;;;;;5014166;28;20479;-63
2021/12/29 09:08:24;;;;;;;25.00;19.37;;;;;;;;;;4999517;28;20034;-63
2021/12/29 09:10:50;;;;;;;24.23;18.13;;;;;;;;;;5006461;28;20040;-64
2021/12/29 09:13:16;;;;;;;22.60;17.50;;;;;;;;;;5016844;28;20148;-63
2021/12/29 09:15:42;;;;;;;21.53;17.57;;;;;;;;;;5006801;28;20480;-65
2021/12/29 09:18:08;;;;;;;27.57;18.03;;;;;;;;;;5011191;28;20096;-64
2021/12/29 09:20:37;;;;;;;24.90;18.83;;;;;;;;;;5006159;28;20494;-63
2021/12/29 09:23:07;;;;;;;22.03;17.90;;;;;;;;;;5009266;28;20384;-63
2021/12/29 09:25:34;;;;;;;22.10;17.87;;;;;;;;;;5011410;28;20077;-63
2021/12/29 09:28:00;;;;;;;24.20;18.70;;;;;;;;;;5008209;28;20025;-63
2021/12/29 09:30:27;;;;;;;26.07;20.73;;;;;;;;;;5017091;28;20494;-63
2021/12/29 09:32:55;;;;;;;25.93;19.60;;;;;;;;;;5021466;28;20050;-64
2021/12/29 09:35:22;;;;;;;27.73;21.73;;;;;;;;;;5010987;28;20040;-64
2021/12/29 09:37:49;;;;;;;24.40;20.70;;;;;;;;;;5011536;28;20034;-64
2021/12/29 09:40:17;;;;;;;27.70;21.03;;;;;;;;;;5013774;28;20038;-63
2021/12/29 09:42:44;;;;;;;30.07;21.87;;;;;;;;;;5013171;28;20026;-63
2021/12/29 09:45:10;;;;;;;26.77;20.93;;;;;;;;;;5008265;28;20038;-63
2021/12/29 09:47:37;;;;;;;29.83;21.57;;;;;;;;;;4990971;28;20049;-63
2021/12/29 09:50:08;;;;;;;28.43;22.70;;;;;;;;;;5010394;28;20034;-63
2021/12/29 09:52:34;;;;;;;33.00;23.27;;;;;;;;;;5007340;28;20032;-63
2021/12/29 09:55:04;;;;;;;30.33;22.67;;;;;;;;;;5011817;28;20034;-63
2021/12/29 09:57:32;;;;;;;29.83;23.17;;;;;;;;;;5012030;28;20380;-63
2021/12/29 09:59:58;;;;;;;31.57;22.27;;;;;;;;;;5011821;28;20033;-63
2021/12/29 10:02:24;;;;;;;29.97;23.00;;;;;;;;;;5013927;28;20021;-64
2021/12/29 10:04:50;;;;;;;29.83;21.80;;;;;;;;;;5012009;28;20041;-63
2021/12/29 10:07:18;;;;;;;34.70;24.40;;;;;;;;;;5010667;28;20045;-64
2021/12/29 10:09:44;;;;;;;33.30;25.00;;;;;;;;;;5001143;28;20032;-63
2021/12/29 10:12:18;;;;;;;34.13;25.13;;;;;;;;;;5007961;28;20034;-64
2021/12/29 10:14:47;;;;;;;30.80;23.23;;;;;;;;;;5019043;28;20084;-64
2021/12/29 10:17:13;;;;;;;29.73;23.40;;;;;;;;;;5021708;28;20101;-63
2021/12/29 10:19:39;;;;;;;33.33;23.90;;;;;;;;;;5011901;28;20423;-64
2021/12/29 10:22:05;;;;;;;34.00;25.43;;;;;;;;;;5009957;28;20038;-64
2021/12/29 10:24:31;;;;;;;34.27;25.50;;;;;;;;;;4998500;28;20125;-64
2021/12/29 10:26:58;;;;;;;34.10;27.77;;;;;;;;;;5005314;28;20550;-63
2021/12/29 10:29:24;;;;;;;33.47;26.17;;;;;;;;;;5002393;28;20109;-63
2021/12/29 10:31:53;;;;;;;34.13;26.13;;;;;;;;;;5010696;28;20146;-63
2021/12/29 10:34:20;;;;;;;35.47;25.63;;;;;;;;;;5014733;28;20046;-64
2021/12/29 10:36:48;;;;;;;35.50;25.67;;;;;;;;;;5012996;28;20037;-63
2021/12/29 10:39:14;;;;;;;32.73;25.93;;;;;;;;;;5014700;28;20490;-63
2021/12/29 10:41:45;;;;;;;37.53;26.73;;;;;;;;;;5013980;28;20178;-64
2021/12/29 10:44:13;;;;;;;34.13;26.93;;;;;;;;;;5010782;28;20106;-64
2021/12/29 10:46:39;;;;;;;42.77;28.50;;;;;;;;;;5004608;28;20513;-63
2021/12/29 10:49:07;;;;;;;36.97;27.40;;;;;;;;;;5007667;28;20445;-64
2021/12/29 10:51:34;;;;;;;36.10;26.97;;;;;;;;;;5003484;28;20034;-64
2021/12/29 10:54:20;;;;;;;36.40;27.77;;;;;;;;;;5024571;28;20518;-64
2021/12/29 10:56:47;;;;;;;36.17;26.70;;;;;;;;;;5013155;28;20053;-63
2021/12/29 10:59:22;;;;;;;34.07;26.77;;;;;;;;;;5019405;28;20056;-64
2021/12/29 11:01:49;;;;;;;41.05;29.50;;;;;;;;;;5012367;28;20040;-64
2021/12/29 11:04:16;;;;;;;42.40;31.60;;;;;;;;;;5013573;28;20022;-64
2021/12/29 11:06:44;;;;;;;42.77;30.60;;;;;;;;;;5010911;28;20034;-64
2021/12/29 11:09:11;;;;;;;44.17;32.03;;;;;;;;;;5008808;28;20404;-63
2021/12/29 11:11:37;;;;;;;44.73;32.73;;;;;;;;;;5011325;28;20030;-63
2021/12/29 11:14:17;;;;;;;44.70;31.77;;;;;;;;;;5010164;28;20022;-64
2021/12/29 11:16:44;;;;;;;49.27;33.13;;;;;;;;;;5012471;28;20049;-63
2021/12/29 11:19:10;;;;;;;47.87;33.67;;;;;;;;;;5014603;28;20068;-64
2021/12/29 11:21:39;;;;;;;49.10;33.63;;;;;;;;;;5014511;28;20101;-63
2021/12/29 11:24:12;;;;;;;48.30;33.87;;;;;;;;;;5013863;28;20379;-64
2021/12/29 11:26:45;;;;;;;47.47;33.10;;;;;;;;;;5010948;28;20566;-63
2021/12/29 11:29:12;;;;;;;48.47;34.73;;;;;;;;;;5022303;28;20026;-63
2021/12/29 11:31:44;;;;;;;49.50;34.20;;;;;;;;;;5010339;28;20112;-63
2021/12/29 11:34:16;;;;;;;49.63;34.77;;;;;;;;;;5014041;28;20460;-64
2021/12/29 11:36:42;;;;;;;43.20;31.87;;;;;;;;;;5010941;28;20387;-64
2021/12/29 11:39:08;;;;;;;51.07;36.63;;;;;;;;;;5012684;28;20422;-63
2021/12/29 11:41:35;;;;;;;44.70;33.90;;;;;;;;;;5002793;28;20484;-63
2021/12/29 11:44:01;;;;;;;40.67;32.03;;;;;;;;;;4994146;28;20068;-64
2021/12/29 11:46:27;;;;;;;48.43;34.10;;;;;;;;;;5012303;28;20395;-63
2021/12/29 11:48:53;;;;;;;46.13;33.40;;;;;;;;;;5012083;28;20026;-64
2021/12/29 11:51:31;;;;;;;42.80;32.60;;;;;;;;;;5012125;28;20471;-64
2021/12/29 11:54:02;;;;;;;47.23;33.80;;;;;;;;;;5010658;28;20026;-64
2021/12/29 11:56:28;;;;;;;45.00;33.20;;;;;;;;;;5012652;28;20428;-63
2021/12/29 11:59:03;;;;;;;47.67;34.38;;;;;;;;;;5012860;28;20026;-64
2021/12/29 12:01:31;;;;;;;46.50;34.00;;;;;;;;;;5014684;28;20045;-63
2021/12/29 12:03:59;;;;;;;49.93;34.37;;;;;;;;;;5017250;28;20542;-63
2021/12/29 12:06:29;;;;;;;47.57;33.63;;;;;;;;;;5008410;28;20473;-64
2021/12/29 12:09:08;;;;;;;44.40;33.57;;;;;;;;;;4996249;28;20029;-63
2021/12/29 12:11:35;;;;;;;42.70;33.20;;;;;;;;;;5012365;28;20107;-63
2021/12/29 12:14:01;;;;;;;41.63;32.07;;;;;;;;;;5010659;28;20506;-64
2021/12/29 12:16:27;;;;;;;46.55;34.30;;;;;;;;;;5003083;28;20128;-65
2021/12/29 12:18:53;;;;;;;46.58;34.42;;;;;;;;;;5014579;28;20383;-64
2021/12/29 12:21:24;;;;;;;42.63;33.03;;;;;;;;;;5011974;28;20026;-64
2021/12/29 12:23:51;;;;;;;41.00;32.40;;;;;;;;;;5012310;28;20045;-64
2021/12/29 12:26:22;;;;;;;42.50;33.60;;;;;;;;;;5008642;28;20128;-65
2021/12/29 12:28:49;;;;;;;48.33;34.83;;;;;;;;;;5013784;28;20022;-64
2021/12/29 12:31:26;;;;;;;49.78;35.30;;;;;;;;;;5013828;28;20493;-64
2021/12/29 12:33:53;;;;;;;47.95;35.35;;;;;;;;;;5014642;28;20431;-64
2021/12/29 12:36:20;;;;;;;48.40;35.17;;;;;;;;;;5019247;28;20978;-65
2021/12/29 12:38:47;;;;;;;45.15;34.13;;;;;;;;;;5018126;28;20078;-64
2021/12/29 12:41:18;;;;;;;45.00;34.55;;;;;;;;;;5010512;28;20033;-64
2021/12/29 12:43:57;;;;;;;45.13;33.60;;;;;;;;;;5013093;28;20032;-65
2021/12/29 12:46:33;;;;;;;42.97;32.92;;;;;;;;;;5014119;28;20061;-64
2021/12/29 12:49:00;;;;;;;40.50;31.95;;;;;;;;;;5009872;28;20390;-64
2021/12/29 12:51:29;;;;;;;37.83;31.83;;;;;;;;;;4998136;28;20034;-64
2021/12/29 12:53:55;;;;;;;41.58;32.97;;;;;;;;;;5008300;28;20435;-65
2021/12/29 12:56:22;;;;;;;41.63;32.95;;;;;;;;;;5011479;28;20018;-64
2021/12/29 12:58:50;;;;;;;40.03;32.72;;;;;;;;;;5005719;28;20030;-64
2021/12/29 13:01:24;;;;;;;40.63;31.73;;;;;;;;;;5012702;28;20022;-64
2021/12/29 13:03:52;;;;;;;42.47;32.72;;;;;;;;;;5011275;28;20033;-64
2021/12/29 13:06:22;;;;;;;44.37;33.17;;;;;;;;;;5004704;28;20377;-64
2021/12/29 13:08:49;;;;;;;44.05;33.35;;;;;;;;;;4992684;28;20393;-64
2021/12/29 13:11:16;;;;;;;44.85;35.13;;;;;;;;;;5010444;28;20029;-64
2021/12/29 13:13:44;;;;;;;43.60;34.58;;;;;;;;;;5007340;28;20034;-64
2021/12/29 13:16:12;;;;;;;43.70;33.97;;;;;;;;;;4994381;28;20044;-65
2021/12/29 13:18:39;;;;;;;41.10;33.40;;;;;;;;;;5015935;28;20025;-64
2021/12/29 13:21:11;;;;;;;42.45;34.20;;;;;;;;;;5011860;28;20056;-64
2021/12/29 13:23:37;;;;;;;39.20;32.78;;;;;;;;;;5009862;28;20030;-64
2021/12/29 13:26:03;;;;;;;42.78;34.70;;;;;;;;;;5011031;28;20034;-64
2021/12/29 13:28:31;;;;;;;44.33;33.80;;;;;;;;;;5011758;28;20060;-65
2021/12/29 13:31:01;;;;;;;45.53;33.95;;;;;;;;;;5011181;28;20025;-64
2021/12/29 13:33:47;;;;;;;47.05;34.88;;;;;;;;;;5011010;28;20125;-64
2021/12/29 13:36:15;;;;;;;42.55;33.00;;;;;;;;;;5004109;28;20041;-64
2021/12/29 13:38:41;;;;;;;44.35;34.67;;;;;;;;;;5012913;28;20030;-63
2021/12/29 13:41:13;;;;;;;45.38;32.58;;;;;;;;;;5002410;28;20480;-64
2021/12/29 13:49:54;;;;;;;47.17;36.63;;;;;;;;;;4989636;28;20086;-64
2021/12/29 13:52:20;;;;;;;52.30;38.35;;;;;;;;;;5016809;28;20392;-63
2021/12/29 13:54:47;;;;;;;52.30;38.30;;;;;;;;;;5011980;28;20034;-63
2021/12/29 13:57:13;;;;;;;52.72;38.03;;;;;;;;;;5012130;28;20034;-64
2021/12/29 13:59:39;;;;;;;51.63;37.53;;;;;;;;;;5016835;28;20101;-64
2021/12/29 14:02:06;;;;;;;58.63;38.92;;;;;;;;;;4994232;28;20112;-64
2021/12/29 14:04:43;;;;;;;52.75;39.08;;;;;;;;;;5011713;28;20026;-64
2021/12/29 14:07:10;;;;;;;53.25;39.40;;;;;;;;;;5013340;28;20057;-64
2021/12/29 14:09:38;;;;;;;55.72;39.53;;;;;;;;;;5017515;28;20034;-65
2021/12/29 14:12:12;;;;;;;59.78;42.15;;;;;;;;;;5003761;28;20026;-65
2021/12/29 14:14:39;;;;;;;52.95;39.55;;;;;;;;;;5008129;28;20050;-66
2021/12/29 14:17:05;;;;;;;56.05;39.75;;;;;;;;;;5011051;28;20018;-65
2021/12/29 14:19:32;;;;;;;51.83;38.67;;;;;;;;;;5014772;28;20084;-65
2021/12/29 14:21:58;;;;;;;53.78;38.58;;;;;;;;;;5014900;28;20018;-64
2021/12/29 14:24:25;;;;;;;50.08;37.00;;;;;;;;;;5015640;28;20120;-65
2021/12/29 14:26:56;;;;;;;53.08;37.38;;;;;;;;;;5014225;28;20036;-65
2021/12/29 14:29:29;;;;;;;52.13;37.47;;;;;;;;;;5021618;28;20479;-66
2021/12/29 14:31:55;;;;;;;50.40;36.45;;;;;;;;;;5020450;28;20042;-65
2021/12/29 14:34:23;;;;;;;52.42;38.83;;;;;;;;;;4997911;28;20491;-65